Tiempo atmosférico en la estación meteorológica de Torrelavega, Sierrapando, Cantabria (100 m.)



Fecha
DESCASC
Temp. máxima en grados centígrados (hora)
DESCASC
Temp. mínima en grados centígrados (hora)
DESCASC
Temp. media en grados centígrados
DESCASC
Racha de viento máxima en m/sg (hora)
DESCASC
Velocidad máxima media en intervalos de 10 minutos(hora)
DESCASC
Precipitaciones diarias en mm
DESCASC
Precipitaciones de 00:00 a 06:00 en mm
DESCASC
Precipitaciones de 06:00 a 12:00 en mm
DESCASC
Precipitaciones de 12:00 a 18:00 en mm
DESCASC
Precipitaciones de 18:00 a 24:00 en mm
DESCASC
19-01-2020 9.6 (13:50) 7.3 (23:10) 8.5 18.33 (02:40) 12.22 (02:50) 4 3.8 0.2 0 0
18-01-2020 17.2 (15:40) 6.6 (03:10) 11.9 25 (16:10) 15.28 (16:20) 8.2 0 0 5 3.2
17-01-2020 12.9 (13:20) 7.3 (23:59) 10.1 13.33 (11:00) 7.5 (14:20) 3.4 2.2 1.2 0 0
16-01-2020 18.4 (14:50) 8.9 (00:00) 13.6 24.44 (17:20) 16.94 (17:20) 0 0 0 0 0
15-01-2020 15.2 (03:30) 8.3 (00:00) 11.8 18.89 (02:50) 12.78 (06:30) 0.2 0 0.2 0 0
14-01-2020 17.1 (14:40) 10.2 (00:00) 13.7 15.83 (18:30) 10 (17:20) 0 0 0 0 0
13-01-2020 15.8 (14:40) 5.2 (00:00) 10.5 11.94 (22:40) 8.61 (22:40) 0 0 0 0 0
12-01-2020 16.2 (15:20) 2.8 (00:00) 9.5 5.56 (08:40) 3.89 (09:20) 0 0 0 0 0
11-01-2020 13.7 (15:40) 3.6 (00:00) 8.6 7.22 (10:00) 4.72 (10:00) 0 0 0 0 0
10-01-2020 11.6 (13:20) 7.6 (00:00) 9.6 15.28 (02:20) 8.89 (02:20) 8.8 0.4 0.8 7.6 0
09-01-2020 20.9 (14:50) 7.5 (00:00) 14.2 22.78 (15:20) 13.61 (15:20) 0.4 0 0 0.2 0.2
08-01-2020 17.1 (13:20) 5.8 (00:00) 11.5 6.39 (02:40) 5 (02:30) 0 0 0 0 0
07-01-2020 14.3 (14:20) 5.5 (00:00) 9.9 6.94 (07:40) 4.72 (01:30) 0 0 0 0 0
06-01-2020 12.9 (13:20) 2 (00:00) 7.4 6.67 (14:00) 5.28 (09:30) 0 0 0 0 0
05-01-2020 12.4 (15:10) 3 (00:00) 7.7 6.39 (05:50) 5 (09:30) 0 0 0 0 0
04-01-2020 11 (15:00) 6 (00:00) 8.5 6.39 (23:40) 4.72 (23:30) 4.8 1.4 3.2 0.2 0
03-01-2020 10.6 (19:50) 6.3 (00:00) 8.5 6.39 (05:10) 4.44 (06:10) 6.2 0 0 0.8 5.4
02-01-2020 14.4 (13:10) 3.1 (00:00) 8.7 6.39 (15:30) 4.44 (15:20) 0 0 0 0 0
01-01-2020 14.1 (13:40) 5.1 (00:00) 9.6 4.72 (22:30) 3.33 (21:20) 0 0 0 0 0
31-12-2019 -- (--) -- (--) -- -- (--) -- (--) 0 0 0 0 0
30-12-2019 -- (--) -- (--) -- -- (--) -- (--) 0 0 0 0 0
29-12-2019 14.8 (15:00) 4.2 (00:00) 9.5 5.83 (04:50) 4.17 (09:30) 0 0 0 0 0
28-12-2019 15.2 (14:40) 2.5 (00:00) 8.8 7.22 (04:40) 5.28 (04:00) 0 0 0 0 0
27-12-2019 13.6 (15:10) 3.9 (00:00) 8.8 6.67 (09:40) 4.72 (09:30) 0 0 0 0 0
26-12-2019 18.1 (00:10) 6.8 (00:00) 12.5 10.28 (01:50) 5.56 (01:50) 0 0 0 0 0
25-12-2019 23.6 (13:50) 12.4 (00:00) 18 8.06 (23:40) 5.83 (21:50) 0 0 0 0 0
24-12-2019 20 (14:40) 12.3 (00:00) 16.2 6.11 (16:40) 4.44 (20:30) 0 0 0 0 0
23-12-2019 16 (16:50) 8.4 (00:00) 12.2 7.78 (00:10) 5.28 (19:40) 0 0 0 0 0
22-12-2019 15 (01:10) 9.7 (00:00) 12.3 26.94 (01:40) 16.67 (01:10) 1.4 0.2 0 1.2 0

Gráficas

Temp. máximas Temp. mínimas Temp. medias Precipitaciones Rachas de viento máximas Velocidades máximas media en intervalos de 10 minutos

Datos horarios

Fecha y hora oficial Temperatura (ºC) Velocidad del viento (km/h) Dirección del viento Racha (km/h) Dirección de racha Precipitación (mm) Presión (hPa) Tendencia (hPa) Humedad (%)
2020-01-20 23:00:00 5.5 8 Sudoeste 11 Sudoeste 0 -- -- 79
2020-01-20 22:00:00 5.5 9 Sudoeste 15 Sudoeste 0 -- -- 78
2020-01-20 21:00:00 5.5 8 Sudoeste 13 Sudoeste 0 -- -- 80
2020-01-20 20:00:00 5.8 3 Sudoeste 7 Este 0 -- -- 73
2020-01-20 19:00:00 5.6 7 Este 11 Este 0 -- -- 75
2020-01-20 18:00:00 5.9 8 Este 15 Este 0 -- -- 74
2020-01-20 17:00:00 6.4 13 Nordeste 23 Este 0 -- -- 67
2020-01-20 16:00:00 6.6 19 Este 32 Este 0 -- -- 65
2020-01-20 15:00:00 7.5 12 Este 20 Nordeste 0 -- -- 67
2020-01-20 14:00:00 6.9 8 Nordeste 23 Nordeste 0 -- -- 71
2020-01-20 13:00:00 6.4 5 Este 20 Este 0 -- -- 72
2020-01-20 12:00:00 5.8 10 Este 22 Nordeste 0 -- -- 72
2020-01-20 11:00:00 5.8 14 Nordeste 26 Nordeste 0 -- -- 66
2020-01-20 10:00:00 6.4 4 Noroeste 17 Nordeste 0 -- -- 69
2020-01-20 09:00:00 5.3 6 Este 26 Nordeste 0 -- -- 71
2020-01-20 08:00:00 5.1 11 Nordeste 40 Nordeste 0.2 -- -- 76
2020-01-20 07:00:00 5.7 26 Este 50 Nordeste 0 -- -- 73
2020-01-20 06:00:00 6.5 30 Nordeste 45 Nordeste 0 -- -- 67
2020-01-20 05:00:00 6.5 25 Nordeste 37 Nordeste 0 -- -- 68
2020-01-20 04:00:00 6.3 12 Nordeste 32 Este 0 -- -- 69
2020-01-20 03:00:00 6.6 19 Este 46 Este 0 -- -- 69
2020-01-20 02:00:00 6.6 21 Este 44 Este 0 -- -- 69
2020-01-20 01:00:00 7.2 27 Este 54 Nordeste 0 -- -- 64
2020-01-20 00:00:00 7.5 35 Nordeste 51 Este 0 -- -- 64
2020-01-19 23:00:00 7.4 35 Nordeste 61 Nordeste 0 -- -- 66
2020-01-19 22:00:00 7.5 41 Nordeste 58 Este 0 -- -- 66
2020-01-19 21:00:00 7.7 35 Nordeste 59 Nordeste 0 -- -- 69
2020-01-19 20:00:00 7.8 31 Nordeste 45 Nordeste 0 -- -- 69
2020-01-19 19:00:00 7.5 29 Nordeste 40 Nordeste 0 -- -- 68
2020-01-19 18:00:00 7.7 25 Nordeste 39 Nordeste 0 -- -- 71
2020-01-19 17:00:00 8.5 23 Nordeste 46 Nordeste 0 -- -- 67
2020-01-19 16:00:00 8.9 30 Nordeste 47 Nordeste 0 -- -- 63
2020-01-19 15:00:00 8.9 31 Nordeste 46 Este 0 -- -- 65
2020-01-19 14:00:00 9.3 30 Nordeste 50 Nordeste 0 -- -- 64
2020-01-19 13:00:00 9 28 Nordeste 45 Nordeste 0 -- -- 72
2020-01-19 12:00:00 9.2 29 Nordeste 47 Nordeste 0 -- -- 73
2020-01-19 11:00:00 8.9 28 Nordeste 41 Nordeste 0 -- -- 75
2020-01-19 10:00:00 8.7 19 Nordeste 30 Nordeste 0 -- -- 77
2020-01-19 09:00:00 8.5 19 Nordeste 34 Nordeste 0 -- -- 79
2020-01-19 08:00:00 8.6 24 Nordeste 44 Nordeste 0 -- -- 81
2020-01-19 07:00:00 8.9 23 Nordeste 39 Nordeste 0.2 -- -- 85
2020-01-19 06:00:00 8.3 22 Nordeste 44 Nordeste 0.2 -- -- 88
2020-01-19 05:00:00 8.3 22 Nordeste 48 Nordeste 0.4 -- -- 93
2020-01-19 04:00:00 8.6 30 Nordeste 57 Nordeste 0.2 -- -- 95
2020-01-19 03:00:00 8.7 38 Nordeste 66 Este 2.4 -- -- 94
2020-01-19 02:00:00 9.3 13 Oeste 24 Noroeste 0.4 -- -- 91
2020-01-19 01:00:00 8.9 8 Sudoeste 19 Oeste 0.2 -- -- 91
2020-01-19 00:00:00 9.1 14 Noroeste 23 Oeste 0.6 -- -- 89
2020-01-18 23:00:00 9.3 7 Oeste 13 Oeste 0.2 -- -- 87
2020-01-18 22:00:00 8.8 11 Sur 15 Sur 0 -- -- 92
2020-01-18 21:00:00 8.8 6 Sur 21 Noroeste 2 -- -- 90
2020-01-18 20:00:00 9.6 14 Noroeste 37 Noroeste 0.4 -- -- 84
2020-01-18 19:00:00 9.7 18 Oeste 30 Oeste 0 -- -- 79
2020-01-18 18:00:00 9.1 17 Oeste 38 Oeste 0.4 -- -- 88
2020-01-18 17:00:00 9 26 Noroeste 90 Oeste 4.6 -- -- 89
2020-01-18 16:00:00 16.4 25 Sudoeste 44 Sur 0 -- -- 51
2020-01-18 15:00:00 16.3 30 Sudoeste 45 Sudoeste 0 -- -- 53
2020-01-18 14:00:00 16.3 23 Sur 47 Sur 0 -- -- 53
2020-01-18 13:00:00 15.2 32 Sur 59 Sudoeste 0 -- -- 54
2020-01-18 12:00:00 14.4 33 Sudoeste 64 Sur 0 -- -- 54
2020-01-18 11:00:00 13.2 38 Sudoeste 62 Sur 0 -- -- 54
2020-01-18 10:00:00 12.6 29 Sudoeste 45 Sudoeste 0 -- -- 53
2020-01-18 09:00:00 10.9 14 Sudoeste 25 Sur 0 -- -- 55
2020-01-18 08:00:00 10.5 12 Sur 20 Sudeste 0 -- -- 58
2020-01-18 07:00:00 8.4 13 Sudeste 19 Sudeste 0 -- -- 73
2020-01-18 06:00:00 7 6 Este 15 Sudeste 0 -- -- 85
2020-01-18 05:00:00 6.7 9 Sur 15 Sudeste 0 -- -- 87
2020-01-18 04:00:00 6.6 13 Sudeste 17 Sudeste 0 -- -- 88
2020-01-18 03:00:00 6.8 6 Sudoeste 11 Sudoeste 0 -- -- 88
2020-01-18 02:00:00 7.2 3 Este 18 Sudeste 0 -- -- 87
2020-01-18 01:00:00 7.1 15 Sudeste 23 Sudeste 0 -- -- 87
2020-01-18 00:00:00 7.3 11 Sudeste 19 Sudeste 0 -- -- 86
2020-01-17 23:00:00 7.6 12 Sudeste 18 Sudeste 0 -- -- 86
2020-01-17 22:00:00 8.1 8 Sudeste 16 Sudeste 0 -- -- 87
2020-01-17 21:00:00 8.4 14 Sudeste 19 Sudeste 0 -- -- 88
2020-01-17 20:00:00 9.2 6 Sur 12 Sudoeste 0 -- -- 84
2020-01-17 19:00:00 9.7 5 Oeste 15 Oeste 0 -- -- 80
2020-01-17 18:00:00 10.3 15 Noroeste 26 Oeste 0 -- -- 73
2020-01-17 17:00:00 10.7 15 Noroeste 40 Noroeste 0 -- -- 66
2020-01-17 16:00:00 12.1 21 Noroeste 40 Noroeste 0 -- -- 64
2020-01-17 15:00:00 12.2 25 Noroeste 43 Noroeste 0 -- -- 59
2020-01-17 14:00:00 12.5 21 Noroeste 41 Oeste 0 -- -- 59
2020-01-17 13:00:00 12.6 21 Oeste 39 Oeste 0 -- -- 62
2020-01-17 12:00:00 11.6 23 Oeste 40 Oeste 0 -- -- 69
2020-01-17 11:00:00 9.9 25 Noroeste 48 Noroeste 0 -- -- 82
2020-01-17 10:00:00 9.5 9 Sudoeste 20 Noroeste 0 -- -- 86
2020-01-17 09:00:00 8.8 12 Oeste 23 Oeste 0.6 -- -- 87
2020-01-17 08:00:00 9.3 12 Sudoeste 22 Oeste 0.6 -- -- 88
2020-01-17 07:00:00 9.5 23 Noroeste 37 Oeste 0 -- -- 87
2020-01-17 06:00:00 9.6 12 Oeste 37 Noroeste 1 -- -- 92
2020-01-17 05:00:00 10.4 6 Norte 21 Noroeste 1.2 -- -- 94
2020-01-17 04:00:00 10.1 8 Sudeste 14 Sudeste 0 -- -- 95
2020-01-17 03:00:00 10.2 11 Sudeste 15 Sudeste 0 -- -- 96
2020-01-17 02:00:00 10 9 Sudoeste 13 Oeste 0 -- -- 95
2020-01-17 01:00:00 10.2 6 Oeste 19 Norte 0 -- -- 94
2020-01-17 00:00:00 11.3 12 Sudoeste 22 Sudoeste 0 -- -- 88
2020-01-16 23:00:00 11.5 12 Norte 23 Nordeste 0 -- -- 89
2020-01-16 22:00:00 12 6 Nordeste 35 Noroeste 0 -- -- 87
2020-01-16 21:00:00 13.7 23 Noroeste 55 Sudoeste 0 -- -- 75
2020-01-16 20:00:00 16.5 36 Sudoeste 65 Sudoeste 0 -- -- 45
2020-01-16 19:00:00 17 40 Sudoeste 79 Sudoeste 0 -- -- 43
2020-01-16 18:00:00 17.2 48 Sur 88 Sudoeste 0 -- -- 46
2020-01-16 17:00:00 18 44 Sudoeste 69 Sudoeste 0 -- -- 43
2020-01-16 16:00:00 17.9 33 Sudoeste 73 Sudoeste 0 -- -- 42
2020-01-16 15:00:00 18.2 40 Sudoeste 71 Sudoeste 0 -- -- 43
2020-01-16 14:00:00 16.4 21 Sur 63 Sur 0 -- -- 56
2020-01-16 13:00:00 16.9 27 Sur 50 Sur 0 -- -- 56
2020-01-16 12:00:00 16.9 21 Sur 51 Sudoeste 0 -- -- 56
2020-01-16 11:00:00 17 20 Sudoeste 45 Sudoeste 0 -- -- 54
2020-01-16 10:00:00 17 20 Sudoeste 35 Sudoeste 0 -- -- 55
2020-01-16 09:00:00 15.9 16 Sudoeste 26 Sudoeste 0 -- -- 59
2020-01-16 08:00:00 16.3 18 Sudoeste 35 Sudoeste 0 -- -- 57
2020-01-16 07:00:00 16 10 Sur 29 Sur 0 -- -- 59
2020-01-16 06:00:00 15.7 17 Sur 38 Sur 0 -- -- 60
2020-01-16 05:00:00 16.2 27 Sur 45 Sur 0 -- -- 60
2020-01-16 04:00:00 15.7 17 Sudoeste 34 Sudoeste 0 -- -- 62
2020-01-16 03:00:00 16.3 22 Sudoeste 32 Sur 0 -- -- 58
2020-01-16 02:00:00 14.4 6 Sur 23 Sur 0 -- -- 67
2020-01-16 01:00:00 12.5 17 Sudeste 23 Sudeste 0 -- -- 73
2020-01-16 00:00:00 8.9 8 Sur 12 Sudeste 0 -- -- 96
2020-01-15 23:00:00 8.5 9 Sur 13 Sudoeste 0 -- -- 95
2020-01-15 22:00:00 8.9 4 Este 15 Sudeste 0 -- -- 94
2020-01-15 21:00:00 9.6 13 Sudeste 21 Sudeste 0 -- -- 92
2020-01-15 20:00:00 10.3 16 Sudeste 21 Sudeste 0 -- -- 92
2020-01-15 19:00:00 10.9 5 Sur 8 Oeste 0 -- -- 92
2020-01-15 18:00:00 11.2 4 Sudoeste 9 Noroeste 0 -- -- 91
2020-01-15 17:00:00 11.4 6 Nordeste 13 Norte 0 -- -- 91
2020-01-15 16:00:00 11.9 6 Nordeste 16 Noroeste 0 -- -- 88
2020-01-15 15:00:00 12 10 Noroeste 23 Noroeste 0 -- -- 87
2020-01-15 14:00:00 12.5 11 Norte 26 Norte 0 -- -- 87
2020-01-15 13:00:00 13.4 17 Norte 25 Norte 0 -- -- 81
2020-01-15 12:00:00 13.2 7 Sudeste 18 Sudoeste 0 -- -- 81
2020-01-15 11:00:00 12.1 8 Oeste 44 Noroeste 0.2 -- -- 86
2020-01-15 10:00:00 14.2 26 Oeste 55 Oeste 0 -- -- 69
2020-01-15 09:00:00 14.4 18 Sur 41 Sur 0 -- -- 58
2020-01-15 08:00:00 14.6 28 Sur 59 Sur 0 -- -- 58
2020-01-15 07:00:00 15.1 31 Sur 66 Sur 0 -- -- 55
2020-01-15 06:00:00 14.7 40 Sur 64 Sur 0 -- -- 57
2020-01-15 05:00:00 14.4 33 Sudoeste 60 Sur 0 -- -- 59
2020-01-15 04:00:00 14.9 32 Sudoeste 60 Sudoeste 0 -- -- 56
2020-01-15 03:00:00 14.9 36 Sudoeste 68 Sur 0 -- -- 54
2020-01-15 02:00:00 15 22 Sur 54 Sudoeste 0 -- -- 53
2020-01-15 01:00:00 14.6 35 Sudoeste 56 Sudoeste 0 -- -- 53
2020-01-15 00:00:00 14.1 33 Sudoeste 51 Sudoeste 0 -- -- 55
2020-01-14 23:00:00 14.2 15 Sur 33 Sudoeste 0 -- -- 51
2020-01-14 22:00:00 13.9 21 Sur 44 Sur 0 -- -- 53
2020-01-14 21:00:00 14.7 33 Sudoeste 46 Sudoeste 0 -- -- 50
2020-01-14 20:00:00 14.5 31 Sudoeste 50 Sudoeste 0 -- -- 50
2020-01-14 19:00:00 14.4 35 Sudoeste 57 Sur 0 -- -- 51
2020-01-14 18:00:00 14.6 32 Sudoeste 52 Sudoeste 0 -- -- 49
2020-01-14 17:00:00 15.8 33 Sudoeste 55 Sudoeste 0 -- -- 47
2020-01-14 16:00:00 15.3 27 Sudoeste 51 Sudoeste 0 -- -- 46
2020-01-14 15:00:00 16.7 23 Sur 47 Sur 0 -- -- 43
2020-01-14 14:00:00 16.1 28 Sudoeste 51 Sudoeste 0 -- -- 44
2020-01-14 13:00:00 13.5 17 Sur 39 Sudeste 0 -- -- 51
2020-01-14 12:00:00 14.1 18 Sudeste 35 Sudeste 0 -- -- 50
2020-01-14 11:00:00 12.9 18 Sudeste 30 Sudeste 0 -- -- 56
2020-01-14 10:00:00 13.1 13 Sur 26 Sur 0 -- -- 55
2020-01-14 09:00:00 11.5 15 Sur 29 Sudeste 0 -- -- 60
2020-01-14 08:00:00 11.8 21 Sudeste 33 Sudeste 0 -- -- 58
2020-01-14 07:00:00 11.5 18 Sur 30 Sur 0 -- -- 59
2020-01-14 06:00:00 11.8 16 Sur 29 Sur 0 -- -- 57
2020-01-14 05:00:00 11.8 15 Sudeste 36 Sur 0 -- -- 54
2020-01-14 04:00:00 11.2 14 Sudeste 30 Sudeste 0 -- -- 56
2020-01-14 03:00:00 11.4 14 Sur 25 Sudeste 0 -- -- 54
2020-01-14 02:00:00 11 9 Sudeste 25 Sudeste 0 -- -- 55
2020-01-14 01:00:00 10.2 9 Sudeste 24 Este 0 -- -- 56
2020-01-14 00:00:00 10.6 10 Sudeste 31 Sudeste 0 -- -- 51
2020-01-13 23:00:00 9.8 21 Sudeste 43 Sudeste 0 -- -- 53
2020-01-13 22:00:00 9.7 21 Sudeste 32 Sudeste 0 -- -- 50
2020-01-13 21:00:00 9.7 11 Sur 19 Sudeste 0 -- -- 48
2020-01-13 20:00:00 11.1 8 Sur 15 Sur 0 -- -- 40
2020-01-13 19:00:00 12.2 7 Sur 26 Sudoeste 0 -- -- 36
2020-01-13 18:00:00 13 15 Sudeste 28 Sudeste 0 -- -- 37
2020-01-13 17:00:00 13.1 14 Sudeste 21 Sudeste 0 -- -- 38
2020-01-13 16:00:00 13.9 11 Sudeste 19 Sudeste 0 -- -- 37
2020-01-13 15:00:00 15.3 9 Sudeste 26 Sudeste 0 -- -- 37
2020-01-13 14:00:00 15 13 Sudeste 24 Sudeste 0 -- -- 41
2020-01-13 13:00:00 14.9 7 Sur 13 Sur 0 -- -- 43
2020-01-13 12:00:00 11.1 12 Sur 16 Sudoeste 0 -- -- 51
2020-01-13 11:00:00 10.5 4 Sudeste 12 Sur 0 -- -- 51
2020-01-13 10:00:00 9 10 Sudoeste 13 Sudoeste 0 -- -- 53
2020-01-13 09:00:00 8.4 7 Sur 15 Sudeste 0 -- -- 57
2020-01-13 08:00:00 7.5 10 Sur 13 Sur 0 -- -- 63
2020-01-13 07:00:00 7.1 9 Sur 15 Sudeste 0 -- -- 66
2020-01-13 06:00:00 6.5 11 Sudeste 17 Sudeste 0 -- -- 72
2020-01-13 05:00:00 6.3 9 Sudeste 13 Sudeste 0 -- -- 74
2020-01-13 04:00:00 5.6 8 Sur 14 Sudoeste 0 -- -- 82
2020-01-13 03:00:00 5.6 7 Sur 17 Sur 0 -- -- 86
2020-01-13 02:00:00 5.5 5 Sur 11 Sudoeste 0 -- -- 86
2020-01-13 01:00:00 5.2 8 Sudoeste 17 Sur 0 -- -- 87
2020-01-13 00:00:00 6.3 11 Sur 15 Sudeste 0 -- -- 82
2020-01-12 23:00:00 7 9 Sur 16 Sudeste 0 -- -- 80
2020-01-12 22:00:00 7.2 8 Sur 13 Sur 0 -- -- 79
2020-01-12 21:00:00 8.2 8 Sur 10 Sur 0 -- -- 76
2020-01-12 20:00:00 9.3 8 Sudoeste 9 Sudoeste 0 -- -- 73
2020-01-12 19:00:00 10.8 3 Sudoeste 5 Sudeste 0 -- -- 67
2020-01-12 18:00:00 11.9 3 Este 10 Nordeste 0 -- -- 61
2020-01-12 17:00:00 12.5 8 Nordeste 13 Nordeste 0 -- -- 61
2020-01-12 16:00:00 15.5 4 Nordeste 6 Norte 0 -- -- 48
2020-01-12 15:00:00 15.8 2 Este 5 Sur 0 -- -- 46
2020-01-12 14:00:00 15.2 3 Sur 11 Sudeste 0 -- -- 55
2020-01-12 13:00:00 12.5 8 Sur 13 Sudeste 0 -- -- 59
2020-01-12 12:00:00 10.1 10 Sur 19 Sudeste 0 -- -- 64
2020-01-12 11:00:00 7 12 Sur 19 Sudeste 0 -- -- 71
2020-01-12 10:00:00 5.5 10 Sur 20 Sudeste 0 -- -- 75
2020-01-12 09:00:00 3.3 11 Sur 20 Sudeste 0 -- -- 82
2020-01-12 08:00:00 2.8 8 Sudoeste 17 Sudoeste 0 -- -- 84
2020-01-12 07:00:00 3.5 9 Sur 15 Sudeste 0 -- -- 83
2020-01-12 06:00:00 3.9 9 Sudoeste 15 Sudeste 0 -- -- 83
2020-01-12 05:00:00 4.3 9 Sur 15 Sur 0 -- -- 81
2020-01-12 04:00:00 4.6 11 Sur 18 Sur 0 -- -- 82
2020-01-12 03:00:00 4.7 10 Sur 15 Sur 0 -- -- 83
2020-01-12 02:00:00 5.1 10 Sur 14 Sur 0 -- -- 82
2020-01-12 01:00:00 5.3 10 Sur 15 Sur 0 -- -- 82
2020-01-12 00:00:00 6 14 Sudoeste 23 Sudoeste 0 -- -- 82
2020-01-11 23:00:00 5.7 7 Sudoeste 19 Sudoeste 0 -- -- 87
2020-01-11 22:00:00 6.5 14 Sudoeste 18 Sudoeste 0 -- -- 84
2020-01-11 21:00:00 7.2 13 Sudoeste 17 Sudoeste 0 -- -- 86
2020-01-11 20:00:00 8.3 11 Sudoeste 17 Sudoeste 0 -- -- 85
2020-01-11 19:00:00 9.4 9 Sudoeste 11 Sudoeste 0 -- -- 83
2020-01-11 18:00:00 11 2 Norte 8 Norte 0 -- -- 81
2020-01-11 17:00:00 11.9 5 Norte 10 Norte 0 -- -- 75
2020-01-11 16:00:00 13.3 4 Nordeste 7 Nordeste 0 -- -- 65
2020-01-11 15:00:00 13 5 Nordeste 14 Sudeste 0 -- -- 65
2020-01-11 14:00:00 13.3 8 Sudeste 15 Sudeste 0 -- -- 63
2020-01-11 13:00:00 11.9 10 Sudeste 20 Sudeste 0 -- -- 65
2020-01-11 12:00:00 10.1 13 Sudeste 18 Sudeste 0 -- -- 74
2020-01-11 11:00:00 7.8 12 Sudeste 22 Sudeste 0 -- -- 81
2020-01-11 10:00:00 5.3 17 Sudeste 26 Sudeste 0 -- -- 88
2020-01-11 09:00:00 3.7 12 Sudeste 19 Sudeste 0 -- -- 93
2020-01-11 08:00:00 3.6 7 Sur 20 Sudeste 0 -- -- 94
2020-01-11 07:00:00 3.8 12 Sur 22 Sudeste 0 -- -- 95
2020-01-11 06:00:00 4.2 17 Sudeste 22 Sudeste 0 -- -- 95
2020-01-11 05:00:00 4.5 8 Sur 19 Sudeste 0 -- -- 95
2020-01-11 04:00:00 4.6 13 Sudeste 21 Sudeste 0 -- -- 96
2020-01-11 03:00:00 5.2 10 Sur 20 Sudeste 0 -- -- 96
2020-01-11 02:00:00 6 6 Sur 15 Sudeste 0 -- -- 96
2020-01-11 01:00:00 6.8 13 Sudeste 17 Sudeste 0 -- -- 96
2020-01-11 00:00:00 7.6 10 Sudeste 16 Sudeste 0 -- -- 95
2020-01-10 23:00:00 7.7 5 Sur 9 Sudoeste 0 -- -- 95
2020-01-10 22:00:00 7.9 6 Sudoeste 12 Sudoeste 0 -- -- 95
2020-01-10 21:00:00 8.2 9 Sudoeste 14 Sudoeste 0 -- -- 94
2020-01-10 20:00:00 8.4 10 Sudoeste 18 Sudoeste 0 -- -- 93
2020-01-10 19:00:00 8.6 10 Sudoeste 20 Sudoeste 0 -- -- 93
2020-01-10 18:00:00 8.9 11 Oeste 18 Oeste 0 -- -- 93
2020-01-10 17:00:00 9.4 17 Oeste 26 Oeste 0.2 -- -- 93
2020-01-10 16:00:00 9 5 Norte 13 Este 4.2 -- -- 94
2020-01-10 15:00:00 9.3 10 Norte 24 Noroeste 3 -- -- 91
2020-01-10 14:00:00 11 18 Noroeste 34 Oeste 0 -- -- 80
2020-01-10 13:00:00 10.8 17 Oeste 31 Oeste 0.2 -- -- 85
2020-01-10 12:00:00 10.1 19 Oeste 34 Oeste 0 -- -- 84
2020-01-10 11:00:00 10.2 16 Oeste 29 Oeste 0 -- -- 81
2020-01-10 10:00:00 8.7 17 Oeste 23 Oeste 0 -- -- 81
2020-01-10 09:00:00 8.2 11 Oeste 25 Oeste 0.2 -- -- 83
2020-01-10 08:00:00 8.2 16 Oeste 36 Oeste 0.2 -- -- 85
2020-01-10 07:00:00 8 14 Oeste 27 Noroeste 0.4 -- -- 86
2020-01-10 06:00:00 7.6 13 Oeste 37 Oeste 0.2 -- -- 86
2020-01-10 05:00:00 8.5 28 Oeste 40 Oeste 0.2 -- -- 81
2020-01-10 04:00:00 8.3 19 Oeste 47 Oeste 0 -- -- 85
2020-01-10 03:00:00 8.7 19 Oeste 55 Oeste 0 -- -- 83
2020-01-10 02:00:00 9.8 17 Oeste 34 Oeste 0 -- -- 72
2020-01-10 01:00:00 9.7 13 Oeste 47 Oeste 0 -- -- 75
2020-01-10 00:00:00 10.3 29 Noroeste 49 Noroeste 0 -- -- 77
2020-01-09 23:00:00 10.2 15 Oeste 38 Oeste 0 -- -- 63
2020-01-09 22:00:00 10 19 Oeste 33 Noroeste 0 -- -- 70
2020-01-09 21:00:00 10.5 12 Noroeste 23 Noroeste 0 -- -- 83
2020-01-09 20:00:00 10.2 7 Sur 16 Sudoeste 0 -- -- 85
2020-01-09 19:00:00 10.2 10 Sudoeste 20 Oeste 0.2 -- -- 88
2020-01-09 18:00:00 10.5 17 Oeste 58 Noroeste 0.2 -- -- 86
2020-01-09 17:00:00 11.7 31 Oeste 68 Oeste 0 -- -- 79
2020-01-09 16:00:00 11.5 45 Noroeste 82 Noroeste 0 -- -- 80
2020-01-09 15:00:00 20.3 18 Sudoeste 50 Noroeste 0 -- -- 48
2020-01-09 14:00:00 20 11 Sur 20 Sur 0 -- -- 51
2020-01-09 13:00:00 18.7 9 Sudeste 21 Sudeste 0 -- -- 53
2020-01-09 12:00:00 17 14 Sudeste 31 Sur 0 -- -- 57
2020-01-09 11:00:00 15 19 Sur 27 Sudeste 0 -- -- 58
2020-01-09 10:00:00 13.1 9 Sur 22 Sudeste 0 -- -- 60
2020-01-09 09:00:00 11.2 15 Sudeste 23 Sudeste 0 -- -- 63
2020-01-09 08:00:00 11.2 8 Sur 15 Sudeste 0 -- -- 64
2020-01-09 07:00:00 11.2 9 Sur 17 Sudeste 0 -- -- 67
2020-01-09 06:00:00 10.2 11 Sudeste 17 Sur 0 -- -- 73
2020-01-09 05:00:00 9.8 14 Sudeste 20 Sudeste 0 -- -- 78
2020-01-09 04:00:00 8.2 10 Sudoeste 18 Sudoeste 0 -- -- 81
2020-01-09 03:00:00 7.6 11 Sudoeste 22 Oeste 0 -- -- 83
2020-01-09 02:00:00 7.8 11 Sudoeste 18 Sudoeste 0 -- -- 83
2020-01-09 01:00:00 8.6 6 Sur 19 Sudeste 0 -- -- 82
2020-01-09 00:00:00 8.5 15 Sudeste 21 Sudeste 0 -- -- 83
2020-01-08 23:00:00 8.4 13 Sudoeste 18 Sudoeste 0 -- -- 84
2020-01-08 22:00:00 9.4 5 Sudoeste 13 Sudoeste 0 -- -- 80
2020-01-08 21:00:00 10.2 8 Sudeste 15 Sudeste 0 -- -- 77
2020-01-08 20:00:00 10.8 9 Sur 10 Sur 0 -- -- 72
2020-01-08 19:00:00 11.9 5 Sudoeste 7 Oeste 0 -- -- 70
2020-01-08 18:00:00 13.3 0 Calma 8 Sudeste 0 -- -- 62
2020-01-08 17:00:00 15.1 3 Nordeste 10 Nordeste 0 -- -- 55
2020-01-08 16:00:00 14.9 7 Nordeste 14 Nordeste 0 -- -- 58
2020-01-08 15:00:00 15.8 9 Nordeste 13 Norte 0 -- -- 60
2020-01-08 14:00:00 16.6 3 Nordeste 8 Este 0 -- -- 55
2020-01-08 13:00:00 16.2 0 Calma 8 Sur 0 -- -- 56
2020-01-08 12:00:00 13.4 6 Sudoeste 12 Sudeste 0 -- -- 61
2020-01-08 11:00:00 9.8 6 Sudoeste 17 Sudoeste 0 -- -- 66
2020-01-08 10:00:00 8.6 10 Sur 22 Sudeste 0 -- -- 67
2020-01-08 09:00:00 8.5 11 Sur 18 Sur 0 -- -- 64
2020-01-08 08:00:00 6.9 10 Sur 18 Sudoeste 0 -- -- 76
2020-01-08 07:00:00 6 7 Sudoeste 13 Sur 0 -- -- 81
2020-01-08 06:00:00 7.4 12 Sur 19 Sudeste 0 -- -- 74
2020-01-08 05:00:00 7.2 9 Sudoeste 14 Sur 0 -- -- 80
2020-01-08 04:00:00 6.6 8 Sudoeste 12 Sudoeste 0 -- -- 87
2020-01-08 03:00:00 6.1 7 Sur 23 Oeste 0 -- -- 89
2020-01-08 02:00:00 6.7 6 Sudoeste 14 Sudeste 0 -- -- 89
2020-01-08 01:00:00 7.4 8 Sur 17 Sudeste 0 -- -- 89
2020-01-08 00:00:00 7.3 8 Sur 11 Sur 0 -- -- 92
2020-01-07 23:00:00 7.2 11 Sudoeste 20 Sudoeste 0 -- -- 92
2020-01-07 22:00:00 7.6 11 Sudoeste 13 Sudoeste 0 -- -- 93
2020-01-07 21:00:00 8.1 10 Sur 12 Sudeste 0 -- -- 91
2020-01-07 20:00:00 9.3 8 Sudeste 10 Sudeste 0 -- -- 89
2020-01-07 19:00:00 10.2 0 Calma 6 Sudeste 0 -- -- 88
2020-01-07 18:00:00 10.6 4 Nordeste 12 Norte 0 -- -- 85
2020-01-07 17:00:00 11.8 11 Norte 17 Noroeste 0 -- -- 79
2020-01-07 16:00:00 13.2 10 Norte 12 Norte 0 -- -- 72
2020-01-07 15:00:00 14.1 5 Norte 10 Norte 0 -- -- 68
2020-01-07 14:00:00 13.7 5 Norte 8 Norte 0 -- -- 69
2020-01-07 13:00:00 13.7 2 Oeste 7 Sudoeste 0 -- -- 67
2020-01-07 12:00:00 11.4 6 Sudoeste 10 Sur 0 -- -- 69
2020-01-07 11:00:00 9 8 Sudoeste 14 Sudoeste 0 -- -- 77
2020-01-07 10:00:00 6.5 6 Sudoeste 17 Sur 0 -- -- 80
2020-01-07 09:00:00 6.5 7 Sudeste 19 Sudeste 0 -- -- 80
2020-01-07 08:00:00 6.3 11 Sur 25 Sudeste 0 -- -- 79
2020-01-07 07:00:00 5.8 10 Sur 19 Sudeste 0 -- -- 81
2020-01-07 06:00:00 6.2 10 Sur 20 Sudeste 0 -- -- 81
2020-01-07 05:00:00 6 12 Sur 19 Sur 0 -- -- 83
2020-01-07 04:00:00 5.7 5 Sudeste 14 Sudeste 0 -- -- 87
2020-01-07 03:00:00 5.8 7 Sur 14 Sudeste 0 -- -- 89
2020-01-07 02:00:00 5.5 9 Sur 23 Sudeste 0 -- -- 91
2020-01-07 01:00:00 5.9 12 Sur 20 Sur 0 -- -- 91
2020-01-07 00:00:00 6.8 6 Sur 10 Sudoeste 0 -- -- 90
2020-01-06 23:00:00 6.9 6 Sudeste 14 Sur 0 -- -- 90
2020-01-06 22:00:00 7 9 Sur 16 Sudeste 0 -- -- 91
2020-01-06 21:00:00 7.6 9 Sudoeste 18 Sudoeste 0 -- -- 89
2020-01-06 20:00:00 8.6 13 Sudoeste 16 Sudoeste 0 -- -- 85
2020-01-06 19:00:00 9 7 Oeste 15 Norte 0 -- -- 86
2020-01-06 18:00:00 9.9 2 Norte 18 Sudoeste 0 -- -- 82
2020-01-06 17:00:00 10.7 9 Oeste 17 Noroeste 0 -- -- 82
2020-01-06 16:00:00 11.4 9 Noroeste 19 Noroeste 0 -- -- 79
2020-01-06 15:00:00 12.1 9 Noroeste 24 Noroeste 0 -- -- 78
2020-01-06 14:00:00 11.1 15 Noroeste 24 Noroeste 0 -- -- 81
2020-01-06 13:00:00 12.5 7 Oeste 13 Sudoeste 0 -- -- 70
2020-01-06 12:00:00 10 9 Sudoeste 17 Sudoeste 0 -- -- 75
2020-01-06 11:00:00 7.9 14 Sudoeste 22 Sudoeste 0 -- -- 82
2020-01-06 10:00:00 6 18 Sudoeste 23 Sudoeste 0 -- -- 86